sensor_id;sensor_type;location;lat;lon;timestamp;P1;durP1;ratioP1;P2;durP2;ratioP2
5555;SDS011;2801;50.972;7.856;2023-05-28T00:01:11;10.32;;;6.20;;
5555;SDS011;2801;50.972;7.856;2023-05-28T00:03:38;9.43;;;6.03;;
5555;SDS011;2801;50.972;7.856;2023-05-28T00:06:08;12.02;;;6.10;;
5555;SDS011;2801;50.972;7.856;2023-05-28T00:08:35;12.48;;;6.00;;
5555;SDS011;2801;50.972;7.856;2023-05-28T00:11:03;10.63;;;5.70;;
5555;SDS011;2801;50.972;7.856;2023-05-28T00:13:32;10.93;;;6.05;;
5555;SDS011;2801;50.972;7.856;2023-05-28T00:15:59;13.07;;;7.27;;
5555;SDS011;2801;50.972;7.856;2023-05-28T00:18:26;11.23;;;6.93;;
5555;SDS011;2801;50.972;7.856;2023-05-28T00:20:54;13.73;;;7.45;;
5555;SDS011;2801;50.972;7.856;2023-05-28T00:23:22;12.30;;;7.75;;
5555;SDS011;2801;50.972;7.856;2023-05-28T00:25:49;15.02;;;8.90;;
5555;SDS011;2801;50.972;7.856;2023-05-28T00:28:16;15.90;;;10.68;;
5555;SDS011;2801;50.972;7.856;2023-05-28T00:30:43;14.35;;;9.35;;
5555;SDS011;2801;50.972;7.856;2023-05-28T00:33:10;14.90;;;8.00;;
5555;SDS011;2801;50.972;7.856;2023-05-28T00:35:37;11.60;;;7.07;;
5555;SDS011;2801;50.972;7.856;2023-05-28T00:38:04;11.68;;;6.65;;
5555;SDS011;2801;50.972;7.856;2023-05-28T00:40:31;10.90;;;6.45;;
5555;SDS011;2801;50.972;7.856;2023-05-28T00:42:58;13.47;;;6.67;;
5555;SDS011;2801;50.972;7.856;2023-05-28T00:45:25;11.77;;;6.63;;
5555;SDS011;2801;50.972;7.856;2023-05-28T00:47:52;12.02;;;6.63;;
5555;SDS011;2801;50.972;7.856;2023-05-28T00:50:19;13.13;;;6.97;;
5555;SDS011;2801;50.972;7.856;2023-05-28T00:52:47;10.13;;;6.63;;
5555;SDS011;2801;50.972;7.856;2023-05-28T00:55:16;8.67;;;5.90;;
5555;SDS011;2801;50.972;7.856;2023-05-28T00:57:44;14.27;;;7.13;;
5555;SDS011;2801;50.972;7.856;2023-05-28T01:00:14;12.07;;;6.67;;
5555;SDS011;2801;50.972;7.856;2023-05-28T01:02:42;15.38;;;6.43;;
5555;SDS011;2801;50.972;7.856;2023-05-28T01:05:10;13.52;;;7.00;;
5555;SDS011;2801;50.972;7.856;2023-05-28T01:07:37;10.37;;;6.40;;
5555;SDS011;2801;50.972;7.856;2023-05-28T01:10:04;10.53;;;5.90;;
5555;SDS011;2801;50.972;7.856;2023-05-28T01:12:33;10.03;;;6.10;;
5555;SDS011;2801;50.972;7.856;2023-05-28T01:15:02;10.77;;;6.80;;
5555;SDS011;2801;50.972;7.856;2023-05-28T01:17:30;12.23;;;7.05;;
5555;SDS011;2801;50.972;7.856;2023-05-28T01:19:58;11.10;;;6.77;;
5555;SDS011;2801;50.972;7.856;2023-05-28T01:22:37;10.83;;;6.20;;
5555;SDS011;2801;50.972;7.856;2023-05-28T01:25:06;11.57;;;6.80;;
5555;SDS011;2801;50.972;7.856;2023-05-28T01:27:39;11.00;;;6.93;;
5555;SDS011;2801;50.972;7.856;2023-05-28T01:30:06;10.90;;;6.50;;
5555;SDS011;2801;50.972;7.856;2023-05-28T01:32:38;11.13;;;6.77;;
5555;SDS011;2801;50.972;7.856;2023-05-28T01:35:06;10.93;;;6.30;;
5555;SDS011;2801;50.972;7.856;2023-05-28T01:37:36;12.30;;;6.50;;
5555;SDS011;2801;50.972;7.856;2023-05-28T01:40:07;11.17;;;6.70;;
5555;SDS011;2801;50.972;7.856;2023-05-28T01:42:36;10.73;;;6.67;;
5555;SDS011;2801;50.972;7.856;2023-05-28T01:45:04;10.47;;;6.57;;
5555;SDS011;2801;50.972;7.856;2023-05-28T01:47:35;12.00;;;6.13;;
5555;SDS011;2801;50.972;7.856;2023-05-28T01:50:03;12.37;;;6.73;;
5555;SDS011;2801;50.972;7.856;2023-05-28T01:52:31;11.47;;;6.63;;
5555;SDS011;2801;50.972;7.856;2023-05-28T01:54:58;13.60;;;6.83;;
5555;SDS011;2801;50.972;7.856;2023-05-28T01:57:25;11.33;;;7.33;;
5555;SDS011;2801;50.972;7.856;2023-05-28T01:59:52;11.83;;;6.73;;
5555;SDS011;2801;50.972;7.856;2023-05-28T02:02:18;12.23;;;7.17;;
5555;SDS011;2801;50.972;7.856;2023-05-28T02:04:48;13.43;;;6.93;;
5555;SDS011;2801;50.972;7.856;2023-05-28T02:07:15;9.37;;;5.57;;
5555;SDS011;2801;50.972;7.856;2023-05-28T02:09:43;10.67;;;6.30;;
5555;SDS011;2801;50.972;7.856;2023-05-28T02:12:11;13.10;;;6.67;;
5555;SDS011;2801;50.972;7.856;2023-05-28T02:14:38;11.10;;;6.47;;
5555;SDS011;2801;50.972;7.856;2023-05-28T02:17:05;14.17;;;6.73;;
5555;SDS011;2801;50.972;7.856;2023-05-28T02:19:32;13.17;;;6.87;;
5555;SDS011;2801;50.972;7.856;2023-05-28T02:22:00;12.17;;;6.47;;
5555;SDS011;2801;50.972;7.856;2023-05-28T02:24:30;10.03;;;6.27;;
5555;SDS011;2801;50.972;7.856;2023-05-28T02:26:57;11.90;;;5.97;;
5555;SDS011;2801;50.972;7.856;2023-05-28T02:29:24;11.13;;;6.90;;
5555;SDS011;2801;50.972;7.856;2023-05-28T02:31:51;10.77;;;6.47;;
5555;SDS011;2801;50.972;7.856;2023-05-28T02:34:18;9.73;;;6.53;;
5555;SDS011;2801;50.972;7.856;2023-05-28T02:36:45;11.13;;;6.63;;
5555;SDS011;2801;50.972;7.856;2023-05-28T02:39:12;10.37;;;5.83;;
5555;SDS011;2801;50.972;7.856;2023-05-28T02:41:39;12.30;;;5.90;;
5555;SDS011;2801;50.972;7.856;2023-05-28T02:44:08;12.20;;;6.53;;
5555;SDS011;2801;50.972;7.856;2023-05-28T02:46:35;9.50;;;6.00;;
5555;SDS011;2801;50.972;7.856;2023-05-28T02:49:02;9.57;;;5.63;;
5555;SDS011;2801;50.972;7.856;2023-05-28T02:51:29;12.10;;;6.70;;
5555;SDS011;2801;50.972;7.856;2023-05-28T02:53:56;9.87;;;5.73;;
5555;SDS011;2801;50.972;7.856;2023-05-28T02:56:23;10.07;;;5.87;;
5555;SDS011;2801;50.972;7.856;2023-05-28T02:58:51;12.33;;;5.90;;
5555;SDS011;2801;50.972;7.856;2023-05-28T03:01:19;10.37;;;5.80;;
5555;SDS011;2801;50.972;7.856;2023-05-28T03:03:46;8.33;;;5.17;;
5555;SDS011;2801;50.972;7.856;2023-05-28T03:06:13;9.10;;;5.20;;
5555;SDS011;2801;50.972;7.856;2023-05-28T03:08:41;9.10;;;5.33;;
5555;SDS011;2801;50.972;7.856;2023-05-28T03:11:08;11.73;;;5.43;;
5555;SDS011;2801;50.972;7.856;2023-05-28T03:13:35;9.87;;;5.90;;
5555;SDS011;2801;50.972;7.856;2023-05-28T03:16:02;10.43;;;5.90;;
5555;SDS011;2801;50.972;7.856;2023-05-28T03:18:29;12.47;;;6.40;;
5555;SDS011;2801;50.972;7.856;2023-05-28T03:20:55;9.70;;;5.80;;
5555;SDS011;2801;50.972;7.856;2023-05-28T03:23:22;11.20;;;5.97;;
5555;SDS011;2801;50.972;7.856;2023-05-28T03:25:49;12.30;;;6.50;;
5555;SDS011;2801;50.972;7.856;2023-05-28T03:28:17;11.73;;;6.67;;
5555;SDS011;2801;50.972;7.856;2023-05-28T03:30:44;12.03;;;7.13;;
5555;SDS011;2801;50.972;7.856;2023-05-28T03:33:11;12.23;;;7.03;;
5555;SDS011;2801;50.972;7.856;2023-05-28T03:35:38;10.90;;;6.13;;
5555;SDS011;2801;50.972;7.856;2023-05-28T03:38:05;12.03;;;6.33;;
5555;SDS011;2801;50.972;7.856;2023-05-28T03:40:32;13.50;;;6.90;;
5555;SDS011;2801;50.972;7.856;2023-05-28T03:42:59;11.30;;;6.77;;
5555;SDS011;2801;50.972;7.856;2023-05-28T03:45:26;12.80;;;6.47;;
5555;SDS011;2801;50.972;7.856;2023-05-28T03:47:53;10.37;;;6.17;;
5555;SDS011;2801;50.972;7.856;2023-05-28T03:50:20;11.53;;;6.33;;
5555;SDS011;2801;50.972;7.856;2023-05-28T03:52:47;11.43;;;6.27;;
5555;SDS011;2801;50.972;7.856;2023-05-28T03:55:14;10.43;;;6.17;;
5555;SDS011;2801;50.972;7.856;2023-05-28T03:57:41;12.13;;;6.47;;
5555;SDS011;2801;50.972;7.856;2023-05-28T04:00:09;11.13;;;6.13;;
5555;SDS011;2801;50.972;7.856;2023-05-28T04:02:36;14.53;;;6.07;;
5555;SDS011;2801;50.972;7.856;2023-05-28T04:05:04;8.63;;;5.63;;
5555;SDS011;2801;50.972;7.856;2023-05-28T04:07:31;8.93;;;5.63;;
5555;SDS011;2801;50.972;7.856;2023-05-28T04:09:58;11.17;;;5.77;;
5555;SDS011;2801;50.972;7.856;2023-05-28T04:12:25;10.93;;;5.57;;
5555;SDS011;2801;50.972;7.856;2023-05-28T04:14:52;10.17;;;5.40;;
5555;SDS011;2801;50.972;7.856;2023-05-28T04:17:19;9.50;;;5.60;;
5555;SDS011;2801;50.972;7.856;2023-05-28T04:19:47;9.43;;;5.23;;
5555;SDS011;2801;50.972;7.856;2023-05-28T04:22:14;12.57;;;5.83;;
5555;SDS011;2801;50.972;7.856;2023-05-28T04:24:41;9.90;;;5.47;;
5555;SDS011;2801;50.972;7.856;2023-05-28T04:27:08;8.73;;;5.83;;
5555;SDS011;2801;50.972;7.856;2023-05-28T04:29:35;10.90;;;5.90;;
5555;SDS011;2801;50.972;7.856;2023-05-28T04:32:02;8.57;;;5.87;;
5555;SDS011;2801;50.972;7.856;2023-05-28T04:34:31;10.27;;;5.37;;
5555;SDS011;2801;50.972;7.856;2023-05-28T04:36:59;9.27;;;5.50;;
5555;SDS011;2801;50.972;7.856;2023-05-28T04:39:26;13.43;;;6.20;;
5555;SDS011;2801;50.972;7.856;2023-05-28T04:41:53;10.83;;;5.63;;
5555;SDS011;2801;50.972;7.856;2023-05-28T04:44:20;9.20;;;5.87;;
5555;SDS011;2801;50.972;7.856;2023-05-28T04:46:52;8.27;;;5.43;;
5555;SDS011;2801;50.972;7.856;2023-05-28T04:49:19;9.50;;;6.00;;
5555;SDS011;2801;50.972;7.856;2023-05-28T04:51:46;9.17;;;5.70;;
5555;SDS011;2801;50.972;7.856;2023-05-28T04:54:13;10.37;;;5.53;;
5555;SDS011;2801;50.972;7.856;2023-05-28T04:56:40;7.50;;;5.30;;
5555;SDS011;2801;50.972;7.856;2023-05-28T04:59:07;10.27;;;5.63;;
5555;SDS011;2801;50.972;7.856;2023-05-28T05:01:36;9.50;;;6.07;;
5555;SDS011;2801;50.972;7.856;2023-05-28T05:04:05;11.80;;;5.90;;
5555;SDS011;2801;50.972;7.856;2023-05-28T05:06:33;12.90;;;5.37;;
5555;SDS011;2801;50.972;7.856;2023-05-28T05:09:00;11.00;;;5.20;;
5555;SDS011;2801;50.972;7.856;2023-05-28T05:11:28;9.52;;;5.70;;
5555;SDS011;2801;50.972;7.856;2023-05-28T05:13:55;9.32;;;4.93;;
5555;SDS011;2801;50.972;7.856;2023-05-28T05:16:22;7.45;;;4.97;;
5555;SDS011;2801;50.972;7.856;2023-05-28T05:18:49;7.40;;;4.75;;
5555;SDS011;2801;50.972;7.856;2023-05-28T05:21:16;8.20;;;5.40;;
5555;SDS011;2801;50.972;7.856;2023-05-28T05:23:43;8.38;;;5.03;;
5555;SDS011;2801;50.972;7.856;2023-05-28T05:26:10;10.05;;;5.28;;
5555;SDS011;2801;50.972;7.856;2023-05-28T05:28:43;9.07;;;5.22;;
5555;SDS011;2801;50.972;7.856;2023-05-28T05:31:10;9.52;;;5.30;;
5555;SDS011;2801;50.972;7.856;2023-05-28T05:33:41;10.23;;;5.90;;
5555;SDS011;2801;50.972;7.856;2023-05-28T05:36:08;10.10;;;5.45;;
5555;SDS011;2801;50.972;7.856;2023-05-28T05:38:37;10.45;;;5.68;;
5555;SDS011;2801;50.972;7.856;2023-05-28T05:41:04;8.80;;;5.25;;
5555;SDS011;2801;50.972;7.856;2023-05-28T05:43:31;10.07;;;5.63;;
5555;SDS011;2801;50.972;7.856;2023-05-28T05:45:58;9.77;;;5.15;;
5555;SDS011;2801;50.972;7.856;2023-05-28T05:48:25;10.77;;;5.35;;
5555;SDS011;2801;50.972;7.856;2023-05-28T05:50:56;10.07;;;5.30;;
5555;SDS011;2801;50.972;7.856;2023-05-28T05:53:24;8.40;;;5.68;;
5555;SDS011;2801;50.972;7.856;2023-05-28T05:55:51;9.13;;;5.32;;
5555;SDS011;2801;50.972;7.856;2023-05-28T05:58:20;8.90;;;5.18;;
5555;SDS011;2801;50.972;7.856;2023-05-28T06:00:47;8.43;;;4.85;;
5555;SDS011;2801;50.972;7.856;2023-05-28T06:03:14;8.00;;;4.85;;
5555;SDS011;2801;50.972;7.856;2023-05-28T06:05:41;10.80;;;4.72;;
5555;SDS011;2801;50.972;7.856;2023-05-28T06:08:08;9.02;;;5.13;;
5555;SDS011;2801;50.972;7.856;2023-05-28T06:10:36;7.90;;;4.85;;
5555;SDS011;2801;50.972;7.856;2023-05-28T06:13:03;8.38;;;5.00;;
5555;SDS011;2801;50.972;7.856;2023-05-28T06:15:30;8.65;;;4.93;;
5555;SDS011;2801;50.972;7.856;2023-05-28T06:17:58;10.35;;;5.00;;
5555;SDS011;2801;50.972;7.856;2023-05-28T06:20:27;12.70;;;5.78;;
5555;SDS011;2801;50.972;7.856;2023-05-28T06:22:54;10.25;;;5.13;;
5555;SDS011;2801;50.972;7.856;2023-05-28T06:25:22;8.57;;;5.07;;
5555;SDS011;2801;50.972;7.856;2023-05-28T06:27:49;8.05;;;4.18;;
5555;SDS011;2801;50.972;7.856;2023-05-28T06:30:17;7.57;;;4.60;;
5555;SDS011;2801;50.972;7.856;2023-05-28T06:32:44;9.75;;;4.55;;
5555;SDS011;2801;50.972;7.856;2023-05-28T06:35:11;6.68;;;4.65;;
5555;SDS011;2801;50.972;7.856;2023-05-28T06:37:38;7.28;;;4.50;;
5555;SDS011;2801;50.972;7.856;2023-05-28T06:40:06;7.93;;;4.40;;
5555;SDS011;2801;50.972;7.856;2023-05-28T06:42:37;6.38;;;4.22;;
5555;SDS011;2801;50.972;7.856;2023-05-28T06:45:04;9.35;;;4.03;;
5555;SDS011;2801;50.972;7.856;2023-05-28T06:47:32;7.88;;;3.90;;
5555;SDS011;2801;50.972;7.856;2023-05-28T06:50:00;7.32;;;3.83;;
5555;SDS011;2801;50.972;7.856;2023-05-28T06:52:27;7.90;;;3.83;;
5555;SDS011;2801;50.972;7.856;2023-05-28T06:54:54;7.70;;;3.90;;
5555;SDS011;2801;50.972;7.856;2023-05-28T06:57:21;7.32;;;3.78;;
5555;SDS011;2801;50.972;7.856;2023-05-28T06:59:48;7.85;;;4.07;;
5555;SDS011;2801;50.972;7.856;2023-05-28T07:02:16;8.55;;;3.88;;
5555;SDS011;2801;50.972;7.856;2023-05-28T07:04:43;7.32;;;3.67;;
5555;SDS011;2801;50.972;7.856;2023-05-28T07:07:10;8.25;;;3.88;;
5555;SDS011;2801;50.972;7.856;2023-05-28T07:09:37;6.85;;;3.75;;
5555;SDS011;2801;50.972;7.856;2023-05-28T07:12:05;7.63;;;3.42;;
5555;SDS011;2801;50.972;7.856;2023-05-28T07:14:32;6.10;;;3.30;;
5555;SDS011;2801;50.972;7.856;2023-05-28T07:16:59;7.80;;;3.35;;
5555;SDS011;2801;50.972;7.856;2023-05-28T07:19:26;8.35;;;3.30;;
5555;SDS011;2801;50.972;7.856;2023-05-28T07:21:53;5.53;;;3.30;;
5555;SDS011;2801;50.972;7.856;2023-05-28T07:24:20;6.13;;;3.25;;
5555;SDS011;2801;50.972;7.856;2023-05-28T07:26:47;8.48;;;3.58;;
5555;SDS011;2801;50.972;7.856;2023-05-28T07:29:14;8.27;;;3.20;;
5555;SDS011;2801;50.972;7.856;2023-05-28T07:31:44;8.93;;;3.47;;
5555;SDS011;2801;50.972;7.856;2023-05-28T07:34:11;7.13;;;3.42;;
5555;SDS011;2801;50.972;7.856;2023-05-28T07:36:38;5.28;;;2.95;;
5555;SDS011;2801;50.972;7.856;2023-05-28T07:39:05;6.25;;;3.30;;
5555;SDS011;2801;50.972;7.856;2023-05-28T07:41:32;6.38;;;3.22;;
5555;SDS011;2801;50.972;7.856;2023-05-28T07:44:00;5.50;;;3.00;;
5555;SDS011;2801;50.972;7.856;2023-05-28T07:46:28;7.20;;;3.60;;
5555;SDS011;2801;50.972;7.856;2023-05-28T07:48:56;6.22;;;3.17;;
5555;SDS011;2801;50.972;7.856;2023-05-28T07:51:22;7.32;;;3.33;;
5555;SDS011;2801;50.972;7.856;2023-05-28T07:53:52;6.72;;;3.65;;
5555;SDS011;2801;50.972;7.856;2023-05-28T07:56:21;6.55;;;2.63;;
5555;SDS011;2801;50.972;7.856;2023-05-28T07:58:48;3.75;;;3.00;;
5555;SDS011;2801;50.972;7.856;2023-05-28T08:01:15;6.85;;;3.63;;
5555;SDS011;2801;50.972;7.856;2023-05-28T08:03:42;6.15;;;3.15;;
5555;SDS011;2801;50.972;7.856;2023-05-28T08:06:09;8.00;;;2.97;;
5555;SDS011;2801;50.972;7.856;2023-05-28T08:08:36;5.50;;;2.97;;
5555;SDS011;2801;50.972;7.856;2023-05-28T08:11:03;5.28;;;2.90;;
5555;SDS011;2801;50.972;7.856;2023-05-28T08:13:31;5.97;;;2.75;;
5555;SDS011;2801;50.972;7.856;2023-05-28T08:15:58;8.75;;;3.10;;
5555;SDS011;2801;50.972;7.856;2023-05-28T08:18:31;4.95;;;3.05;;
5555;SDS011;2801;50.972;7.856;2023-05-28T08:20:58;6.78;;;3.30;;
5555;SDS011;2801;50.972;7.856;2023-05-28T08:23:25;5.80;;;2.83;;
5555;SDS011;2801;50.972;7.856;2023-05-28T08:25:52;5.28;;;3.08;;
5555;SDS011;2801;50.972;7.856;2023-05-28T08:28:22;4.63;;;2.60;;
5555;SDS011;2801;50.972;7.856;2023-05-28T08:30:50;5.20;;;2.80;;
5555;SDS011;2801;50.972;7.856;2023-05-28T08:33:17;4.93;;;2.72;;
5555;SDS011;2801;50.972;7.856;2023-05-28T08:35:44;6.65;;;3.03;;
5555;SDS011;2801;50.972;7.856;2023-05-28T08:38:11;7.65;;;3.47;;
5555;SDS011;2801;50.972;7.856;2023-05-28T08:40:39;9.02;;;3.30;;
5555;SDS011;2801;50.972;7.856;2023-05-28T08:43:10;6.00;;;2.95;;
5555;SDS011;2801;50.972;7.856;2023-05-28T08:45:37;9.38;;;3.13;;
5555;SDS011;2801;50.972;7.856;2023-05-28T08:48:07;6.90;;;3.20;;
5555;SDS011;2801;50.972;7.856;2023-05-28T08:50:37;5.72;;;2.80;;
5555;SDS011;2801;50.972;7.856;2023-05-28T08:53:10;5.07;;;2.90;;
5555;SDS011;2801;50.972;7.856;2023-05-28T08:55:45;6.45;;;2.85;;
5555;SDS011;2801;50.972;7.856;2023-05-28T08:58:13;7.10;;;2.88;;
5555;SDS011;2801;50.972;7.856;2023-05-28T09:00:40;6.75;;;2.90;;
5555;SDS011;2801;50.972;7.856;2023-05-28T09:03:07;9.88;;;3.05;;
5555;SDS011;2801;50.972;7.856;2023-05-28T09:05:35;5.20;;;3.25;;
5555;SDS011;2801;50.972;7.856;2023-05-28T09:08:06;8.07;;;3.00;;
5555;SDS011;2801;50.972;7.856;2023-05-28T09:10:37;4.57;;;2.78;;
5555;SDS011;2801;50.972;7.856;2023-05-28T09:13:05;5.45;;;2.58;;
5555;SDS011;2801;50.972;7.856;2023-05-28T09:15:33;5.80;;;3.17;;
5555;SDS011;2801;50.972;7.856;2023-05-28T09:18:04;6.30;;;2.80;;
5555;SDS011;2801;50.972;7.856;2023-05-28T09:20:32;5.70;;;3.20;;
5555;SDS011;2801;50.972;7.856;2023-05-28T09:23:01;5.82;;;2.50;;
5555;SDS011;2801;50.972;7.856;2023-05-28T09:25:33;9.23;;;3.38;;
5555;SDS011;2801;50.972;7.856;2023-05-28T09:28:02;7.72;;;3.03;;
5555;SDS011;2801;50.972;7.856;2023-05-28T09:30:34;6.22;;;3.10;;
5555;SDS011;2801;50.972;7.856;2023-05-28T09:33:02;5.63;;;3.28;;
5555;SDS011;2801;50.972;7.856;2023-05-28T09:35:32;5.60;;;2.90;;
5555;SDS011;2801;50.972;7.856;2023-05-28T09:40:29;4.68;;;2.80;;
5555;SDS011;2801;50.972;7.856;2023-05-28T09:42:57;7.13;;;3.28;;
5555;SDS011;2801;50.972;7.856;2023-05-28T09:45:24;8.07;;;3.05;;
5555;SDS011;2801;50.972;7.856;2023-05-28T09:47:53;4.50;;;2.78;;
5555;SDS011;2801;50.972;7.856;2023-05-28T09:50:20;6.60;;;3.10;;
5555;SDS011;2801;50.972;7.856;2023-05-28T09:52:47;6.18;;;3.20;;
5555;SDS011;2801;50.972;7.856;2023-05-28T09:55:16;6.65;;;3.10;;
5555;SDS011;2801;50.972;7.856;2023-05-28T09:57:45;5.57;;;3.00;;
5555;SDS011;2801;50.972;7.856;2023-05-28T10:00:20;5.50;;;2.60;;
5555;SDS011;2801;50.972;7.856;2023-05-28T10:05:54;4.60;;;2.60;;
5555;SDS011;2801;50.972;7.856;2023-05-28T10:08:26;6.40;;;3.17;;
5555;SDS011;2801;50.972;7.856;2023-05-28T10:10:54;5.57;;;3.10;;
5555;SDS011;2801;50.972;7.856;2023-05-28T10:13:21;5.90;;;3.17;;
5555;SDS011;2801;50.972;7.856;2023-05-28T10:15:49;6.95;;;3.20;;
5555;SDS011;2801;50.972;7.856;2023-05-28T10:18:18;8.52;;;2.97;;
5555;SDS011;2801;50.972;7.856;2023-05-28T10:20:46;8.98;;;3.17;;
5555;SDS011;2801;50.972;7.856;2023-05-28T10:23:14;8.07;;;2.90;;
5555;SDS011;2801;50.972;7.856;2023-05-28T10:25:42;5.63;;;2.90;;
5555;SDS011;2801;50.972;7.856;2023-05-28T10:28:09;5.78;;;3.15;;
5555;SDS011;2801;50.972;7.856;2023-05-28T10:30:41;5.82;;;3.03;;
5555;SDS011;2801;50.972;7.856;2023-05-28T10:33:15;6.63;;;2.92;;
5555;SDS011;2801;50.972;7.856;2023-05-28T10:35:52;5.40;;;2.97;;
5555;SDS011;2801;50.972;7.856;2023-05-28T10:38:22;5.53;;;3.10;;
5555;SDS011;2801;50.972;7.856;2023-05-28T10:40:49;5.22;;;3.03;;
5555;SDS011;2801;50.972;7.856;2023-05-28T10:46:39;9.35;;;3.30;;
5555;SDS011;2801;50.972;7.856;2023-05-28T10:49:09;6.15;;;3.03;;
5555;SDS011;2801;50.972;7.856;2023-05-28T10:59:58;6.47;;;3.13;;
5555;SDS011;2801;50.972;7.856;2023-05-28T11:02:27;5.35;;;3.20;;
5555;SDS011;2801;50.972;7.856;2023-05-28T11:05:00;5.40;;;2.90;;
5555;SDS011;2801;50.972;7.856;2023-05-28T11:07:38;6.55;;;3.20;;
5555;SDS011;2801;50.972;7.856;2023-05-28T11:12:43;6.80;;;2.70;;
5555;SDS011;2801;50.972;7.856;2023-05-28T11:15:13;5.38;;;3.30;;
5555;SDS011;2801;50.972;7.856;2023-05-28T11:17:41;5.63;;;3.20;;
5555;SDS011;2801;50.972;7.856;2023-05-28T11:20:16;5.43;;;3.20;;
5555;SDS011;2801;50.972;7.856;2023-05-28T11:22:43;6.80;;;3.30;;
5555;SDS011;2801;50.972;7.856;2023-05-28T11:25:11;6.05;;;3.15;;
5555;SDS011;2801;50.972;7.856;2023-05-28T11:27:39;6.30;;;3.20;;
5555;SDS011;2801;50.972;7.856;2023-05-28T11:30:08;7.32;;;3.58;;
5555;SDS011;2801;50.972;7.856;2023-05-28T11:32:44;7.63;;;3.42;;
5555;SDS011;2801;50.972;7.856;2023-05-28T11:35:14;6.20;;;3.40;;
5555;SDS011;2801;50.972;7.856;2023-05-28T11:37:44;6.28;;;3.22;;
5555;SDS011;2801;50.972;7.856;2023-05-28T11:40:12;7.85;;;3.28;;
5555;SDS011;2801;50.972;7.856;2023-05-28T11:42:42;7.20;;;3.60;;
5555;SDS011;2801;50.972;7.856;2023-05-28T11:45:11;6.35;;;3.30;;
5555;SDS011;2801;50.972;7.856;2023-05-28T11:47:39;5.53;;;3.08;;
5555;SDS011;2801;50.972;7.856;2023-05-28T11:50:09;5.00;;;3.28;;
5555;SDS011;2801;50.972;7.856;2023-05-28T11:52:39;4.82;;;2.92;;
5555;SDS011;2801;50.972;7.856;2023-05-28T11:55:07;6.93;;;3.10;;
5555;SDS011;2801;50.972;7.856;2023-05-28T11:57:35;6.32;;;3.10;;
5555;SDS011;2801;50.972;7.856;2023-05-28T12:00:10;5.80;;;3.38;;
5555;SDS011;2801;50.972;7.856;2023-05-28T12:05:18;4.50;;;2.95;;
5555;SDS011;2801;50.972;7.856;2023-05-28T12:07:50;6.60;;;3.67;;
5555;SDS011;2801;50.972;7.856;2023-05-28T12:10:22;5.28;;;3.00;;
5555;SDS011;2801;50.972;7.856;2023-05-28T12:12:54;6.15;;;3.63;;
5555;SDS011;2801;50.972;7.856;2023-05-28T12:15:24;5.15;;;3.28;;
5555;SDS011;2801;50.972;7.856;2023-05-28T12:17:55;5.15;;;3.00;;
5555;SDS011;2801;50.972;7.856;2023-05-28T12:28:10;5.47;;;3.28;;
5555;SDS011;2801;50.972;7.856;2023-05-28T12:30:39;6.05;;;3.20;;
5555;SDS011;2801;50.972;7.856;2023-05-28T12:33:11;5.07;;;3.00;;
5555;SDS011;2801;50.972;7.856;2023-05-28T12:35:38;6.10;;;2.90;;
5555;SDS011;2801;50.972;7.856;2023-05-28T12:38:06;6.22;;;3.28;;
5555;SDS011;2801;50.972;7.856;2023-05-28T12:40:33;4.32;;;3.10;;
5555;SDS011;2801;50.972;7.856;2023-05-28T12:43:01;5.47;;;3.33;;
5555;SDS011;2801;50.972;7.856;2023-05-28T12:45:28;6.22;;;2.97;;
5555;SDS011;2801;50.972;7.856;2023-05-28T12:47:55;6.07;;;3.00;;
5555;SDS011;2801;50.972;7.856;2023-05-28T12:50:22;5.53;;;3.25;;
5555;SDS011;2801;50.972;7.856;2023-05-28T12:52:50;5.53;;;3.25;;
5555;SDS011;2801;50.972;7.856;2023-05-28T12:55:16;6.45;;;3.30;;
5555;SDS011;2801;50.972;7.856;2023-05-28T12:57:44;5.88;;;3.22;;
5555;SDS011;2801;50.972;7.856;2023-05-28T13:00:11;6.30;;;3.13;;
5555;SDS011;2801;50.972;7.856;2023-05-28T13:02:39;5.57;;;2.80;;
5555;SDS011;2801;50.972;7.856;2023-05-28T13:05:07;6.10;;;3.25;;
5555;SDS011;2801;50.972;7.856;2023-05-28T13:07:35;5.78;;;3.08;;
5555;SDS011;2801;50.972;7.856;2023-05-28T13:10:02;4.60;;;3.08;;
5555;SDS011;2801;50.972;7.856;2023-05-28T13:12:31;5.65;;;3.05;;
5555;SDS011;2801;50.972;7.856;2023-05-28T13:14:59;4.97;;;3.33;;
5555;SDS011;2801;50.972;7.856;2023-05-28T13:17:26;6.82;;;3.05;;
5555;SDS011;2801;50.972;7.856;2023-05-28T13:19:53;3.63;;;2.60;;
5555;SDS011;2801;50.972;7.856;2023-05-28T13:22:20;4.45;;;2.80;;
5555;SDS011;2801;50.972;7.856;2023-05-28T13:24:47;4.80;;;2.67;;
5555;SDS011;2801;50.972;7.856;2023-05-28T13:27:14;5.43;;;2.80;;
5555;SDS011;2801;50.972;7.856;2023-05-28T13:29:41;4.95;;;2.55;;
5555;SDS011;2801;50.972;7.856;2023-05-28T13:32:08;6.45;;;3.17;;
5555;SDS011;2801;50.972;7.856;2023-05-28T13:34:37;6.75;;;2.85;;
5555;SDS011;2801;50.972;7.856;2023-05-28T13:37:06;4.90;;;2.90;;
5555;SDS011;2801;50.972;7.856;2023-05-28T13:39:33;4.50;;;2.42;;
5555;SDS011;2801;50.972;7.856;2023-05-28T13:42:00;3.80;;;2.40;;
5555;SDS011;2801;50.972;7.856;2023-05-28T13:44:29;4.50;;;2.53;;
5555;SDS011;2801;50.972;7.856;2023-05-28T13:46:57;7.30;;;3.05;;
5555;SDS011;2801;50.972;7.856;2023-05-28T13:49:24;5.35;;;2.58;;
5555;SDS011;2801;50.972;7.856;2023-05-28T13:51:51;4.45;;;2.78;;
5555;SDS011;2801;50.972;7.856;2023-05-28T13:54:18;5.45;;;2.70;;
5555;SDS011;2801;50.972;7.856;2023-05-28T13:56:45;4.13;;;2.55;;
5555;SDS011;2801;50.972;7.856;2023-05-28T13:59:12;6.13;;;2.70;;
5555;SDS011;2801;50.972;7.856;2023-05-28T14:01:39;6.05;;;2.78;;
5555;SDS011;2801;50.972;7.856;2023-05-28T14:04:06;5.07;;;2.40;;
5555;SDS011;2801;50.972;7.856;2023-05-28T14:06:35;3.92;;;2.35;;
5555;SDS011;2801;50.972;7.856;2023-05-28T14:09:02;4.95;;;2.15;;
5555;SDS011;2801;50.972;7.856;2023-05-28T14:11:31;3.92;;;2.40;;
5555;SDS011;2801;50.972;7.856;2023-05-28T14:14:18;4.55;;;2.47;;
5555;SDS011;2801;50.972;7.856;2023-05-28T14:16:45;6.32;;;2.35;;
5555;SDS011;2801;50.972;7.856;2023-05-28T14:19:12;4.50;;;2.25;;
5555;SDS011;2801;50.972;7.856;2023-05-28T14:21:39;4.13;;;2.13;;
5555;SDS011;2801;50.972;7.856;2023-05-28T14:24:08;4.40;;;2.40;;
5555;SDS011;2801;50.972;7.856;2023-05-28T14:26:35;4.68;;;2.30;;
5555;SDS011;2801;50.972;7.856;2023-05-28T14:29:02;4.68;;;2.10;;
5555;SDS011;2801;50.972;7.856;2023-05-28T14:31:28;6.50;;;2.53;;
5555;SDS011;2801;50.972;7.856;2023-05-28T14:33:55;3.80;;;2.40;;
5555;SDS011;2801;50.972;7.856;2023-05-28T14:36:22;5.88;;;2.35;;
5555;SDS011;2801;50.972;7.856;2023-05-28T14:38:49;3.97;;;2.22;;
5555;SDS011;2801;50.972;7.856;2023-05-28T14:41:16;3.05;;;1.85;;
5555;SDS011;2801;50.972;7.856;2023-05-28T14:43:44;3.30;;;2.38;;
5555;SDS011;2801;50.972;7.856;2023-05-28T14:46:11;3.83;;;2.15;;
5555;SDS011;2801;50.972;7.856;2023-05-28T14:48:38;4.82;;;2.25;;
5555;SDS011;2801;50.972;7.856;2023-05-28T14:51:06;7.50;;;2.38;;
5555;SDS011;2801;50.972;7.856;2023-05-28T14:53:35;4.72;;;2.40;;
5555;SDS011;2801;50.972;7.856;2023-05-28T14:56:03;4.80;;;2.45;;
5555;SDS011;2801;50.972;7.856;2023-05-28T14:58:30;4.65;;;2.10;;
5555;SDS011;2801;50.972;7.856;2023-05-28T15:00:57;3.40;;;2.30;;
5555;SDS011;2801;50.972;7.856;2023-05-28T15:03:31;6.10;;;2.78;;
5555;SDS011;2801;50.972;7.856;2023-05-28T15:05:58;4.95;;;1.98;;
5555;SDS011;2801;50.972;7.856;2023-05-28T15:08:26;3.28;;;2.33;;
5555;SDS011;2801;50.972;7.856;2023-05-28T15:10:53;4.15;;;2.47;;
5555;SDS011;2801;50.972;7.856;2023-05-28T15:13:20;3.75;;;2.10;;
5555;SDS011;2801;50.972;7.856;2023-05-28T15:15:47;4.82;;;2.22;;
5555;SDS011;2801;50.972;7.856;2023-05-28T15:18:14;4.00;;;1.90;;
5555;SDS011;2801;50.972;7.856;2023-05-28T15:20:41;4.55;;;2.17;;
5555;SDS011;2801;50.972;7.856;2023-05-28T15:23:08;3.92;;;1.80;;
5555;SDS011;2801;50.972;7.856;2023-05-28T15:25:35;6.18;;;2.30;;
5555;SDS011;2801;50.972;7.856;2023-05-28T15:28:03;5.38;;;2.20;;
5555;SDS011;2801;50.972;7.856;2023-05-28T15:30:30;4.53;;;2.10;;
5555;SDS011;2801;50.972;7.856;2023-05-28T15:32:58;6.55;;;2.13;;
5555;SDS011;2801;50.972;7.856;2023-05-28T15:35:27;7.15;;;2.50;;
5555;SDS011;2801;50.972;7.856;2023-05-28T15:37:55;4.30;;;2.05;;
5555;SDS011;2801;50.972;7.856;2023-05-28T15:40:23;5.32;;;2.30;;
5555;SDS011;2801;50.972;7.856;2023-05-28T15:42:50;5.95;;;2.30;;
5555;SDS011;2801;50.972;7.856;2023-05-28T15:45:23;3.03;;;1.95;;